sensor_id;sensor_type;location;lat;lon;timestamp;P1;durP1;ratioP1;P2;durP2;ratioP2
3099;SDS011;1560;52.746;13.474;2023-05-10T00:01:37;8.43;;;5.60;;
3099;SDS011;1560;52.746;13.474;2023-05-10T00:04:06;6.87;;;5.70;;
3099;SDS011;1560;52.746;13.474;2023-05-10T00:06:35;8.23;;;6.30;;
3099;SDS011;1560;52.746;13.474;2023-05-10T00:09:05;7.17;;;6.20;;
3099;SDS011;1560;52.746;13.474;2023-05-10T00:11:34;9.93;;;5.60;;
3099;SDS011;1560;52.746;13.474;2023-05-10T00:16:41;9.43;;;6.70;;
3099;SDS011;1560;52.746;13.474;2023-05-10T00:21:48;7.75;;;6.50;;
3099;SDS011;1560;52.746;13.474;2023-05-10T00:24:17;9.73;;;6.10;;
3099;SDS011;1560;52.746;13.474;2023-05-10T00:26:47;9.47;;;6.40;;
3099;SDS011;1560;52.746;13.474;2023-05-10T00:29:15;8.27;;;6.30;;
3099;SDS011;1560;52.746;13.474;2023-05-10T00:43:01;9.38;;;6.78;;
3099;SDS011;1560;52.746;13.474;2023-05-10T00:45:31;7.67;;;6.63;;
3099;SDS011;1560;52.746;13.474;2023-05-10T00:48:03;11.40;;;6.93;;
3099;SDS011;1560;52.746;13.474;2023-05-10T00:50:33;8.53;;;6.30;;
3099;SDS011;1560;52.746;13.474;2023-05-10T00:53:02;10.13;;;6.57;;
3099;SDS011;1560;52.746;13.474;2023-05-10T00:55:31;10.90;;;6.85;;
3099;SDS011;1560;52.746;13.474;2023-05-10T00:58:01;7.07;;;6.40;;
3099;SDS011;1560;52.746;13.474;2023-05-10T01:00:30;9.30;;;7.33;;
3099;SDS011;1560;52.746;13.474;2023-05-10T01:03:11;8.60;;;6.60;;
3099;SDS011;1560;52.746;13.474;2023-05-10T01:05:41;8.60;;;6.40;;
3099;SDS011;1560;52.746;13.474;2023-05-10T01:10:47;8.00;;;5.83;;
3099;SDS011;1560;52.746;13.474;2023-05-10T01:13:18;9.23;;;6.55;;
3099;SDS011;1560;52.746;13.474;2023-05-10T01:15:53;8.47;;;6.47;;
3099;SDS011;1560;52.746;13.474;2023-05-10T01:18:22;9.77;;;6.87;;
3099;SDS011;1560;52.746;13.474;2023-05-10T01:20:56;9.08;;;6.72;;
3099;SDS011;1560;52.746;13.474;2023-05-10T01:23:34;9.45;;;7.08;;
3099;SDS011;1560;52.746;13.474;2023-05-10T01:26:11;10.40;;;8.00;;
3099;SDS011;1560;52.746;13.474;2023-05-10T01:34:56;8.00;;;6.45;;
3099;SDS011;1560;52.746;13.474;2023-05-10T01:40:10;8.63;;;5.97;;
3099;SDS011;1560;52.746;13.474;2023-05-10T01:42:46;11.55;;;5.95;;
3099;SDS011;1560;52.746;13.474;2023-05-10T01:45:19;10.43;;;6.55;;
3099;SDS011;1560;52.746;13.474;2023-05-10T01:50:35;9.70;;;6.83;;
3099;SDS011;1560;52.746;13.474;2023-05-10T01:53:06;9.00;;;6.60;;
3099;SDS011;1560;52.746;13.474;2023-05-10T01:55:41;9.68;;;6.72;;
3099;SDS011;1560;52.746;13.474;2023-05-10T01:58:13;10.93;;;7.10;;
3099;SDS011;1560;52.746;13.474;2023-05-10T02:00:46;10.05;;;6.50;;
3099;SDS011;1560;52.746;13.474;2023-05-10T02:06:02;10.78;;;7.28;;
3099;SDS011;1560;52.746;13.474;2023-05-10T02:08:34;7.95;;;6.47;;
3099;SDS011;1560;52.746;13.474;2023-05-10T02:11:05;9.33;;;6.60;;
3099;SDS011;1560;52.746;13.474;2023-05-10T02:13:37;8.70;;;5.65;;
3099;SDS011;1560;52.746;13.474;2023-05-10T02:16:09;10.85;;;5.75;;
3099;SDS011;1560;52.746;13.474;2023-05-10T02:18:40;7.55;;;6.50;;
3099;SDS011;1560;52.746;13.474;2023-05-10T02:23:50;9.73;;;6.33;;
3099;SDS011;1560;52.746;13.474;2023-05-10T02:26:21;9.43;;;6.70;;
3099;SDS011;1560;52.746;13.474;2023-05-10T02:28:52;10.05;;;6.62;;
3099;SDS011;1560;52.746;13.474;2023-05-10T02:31:23;8.63;;;5.78;;
3099;SDS011;1560;52.746;13.474;2023-05-10T02:34:04;8.35;;;6.58;;
3099;SDS011;1560;52.746;13.474;2023-05-10T02:36:36;6.67;;;5.60;;
3099;SDS011;1560;52.746;13.474;2023-05-10T02:39:14;7.72;;;6.60;;
3099;SDS011;1560;52.746;13.474;2023-05-10T02:41:43;10.58;;;6.67;;
3099;SDS011;1560;52.746;13.474;2023-05-10T02:44:15;8.00;;;6.20;;
3099;SDS011;1560;52.746;13.474;2023-05-10T02:46:57;9.60;;;6.35;;
3099;SDS011;1560;52.746;13.474;2023-05-10T02:49:27;8.70;;;5.90;;
3099;SDS011;1560;52.746;13.474;2023-05-10T02:51:58;11.45;;;6.30;;
3099;SDS011;1560;52.746;13.474;2023-05-10T02:54:30;8.40;;;5.80;;
3099;SDS011;1560;52.746;13.474;2023-05-10T02:59:40;10.00;;;6.55;;
3099;SDS011;1560;52.746;13.474;2023-05-10T03:02:09;8.28;;;6.15;;
3099;SDS011;1560;52.746;13.474;2023-05-10T03:04:40;9.03;;;5.85;;
3099;SDS011;1560;52.746;13.474;2023-05-10T03:07:11;8.33;;;6.45;;
3099;SDS011;1560;52.746;13.474;2023-05-10T03:09:45;6.37;;;5.15;;
3099;SDS011;1560;52.746;13.474;2023-05-10T03:12:18;7.20;;;5.80;;
3099;SDS011;1560;52.746;13.474;2023-05-10T03:14:58;8.10;;;6.33;;
3099;SDS011;1560;52.746;13.474;2023-05-10T03:20:11;7.60;;;5.47;;
3099;SDS011;1560;52.746;13.474;2023-05-10T03:22:44;9.28;;;6.45;;
3099;SDS011;1560;52.746;13.474;2023-05-10T03:25:26;8.48;;;5.70;;
3099;SDS011;1560;52.746;13.474;2023-05-10T03:27:56;8.68;;;5.47;;
3099;SDS011;1560;52.746;13.474;2023-05-10T03:33:05;8.55;;;5.67;;
3099;SDS011;1560;52.746;13.474;2023-05-10T03:35:35;10.00;;;6.17;;
3099;SDS011;1560;52.746;13.474;2023-05-10T03:38:05;8.20;;;6.20;;
3099;SDS011;1560;52.746;13.474;2023-05-10T03:40:34;8.85;;;6.03;;
3099;SDS011;1560;52.746;13.474;2023-05-10T03:45:47;7.30;;;5.50;;
3099;SDS011;1560;52.746;13.474;2023-05-10T03:48:16;8.08;;;6.25;;
3099;SDS011;1560;52.746;13.474;2023-05-10T03:50:45;8.93;;;5.78;;
3099;SDS011;1560;52.746;13.474;2023-05-10T03:53:15;8.23;;;7.25;;
3099;SDS011;1560;52.746;13.474;2023-05-10T03:55:45;8.03;;;6.07;;
3099;SDS011;1560;52.746;13.474;2023-05-10T04:00:54;7.40;;;5.58;;
3099;SDS011;1560;52.746;13.474;2023-05-10T04:03:23;6.85;;;6.12;;
3099;SDS011;1560;52.746;13.474;2023-05-10T04:05:58;8.13;;;5.30;;
3099;SDS011;1560;52.746;13.474;2023-05-10T04:08:28;8.33;;;5.60;;
3099;SDS011;1560;52.746;13.474;2023-05-10T04:11:05;9.13;;;6.72;;
3099;SDS011;1560;52.746;13.474;2023-05-10T04:13:34;7.90;;;4.90;;
3099;SDS011;1560;52.746;13.474;2023-05-10T04:16:05;7.00;;;5.35;;
3099;SDS011;1560;52.746;13.474;2023-05-10T04:18:34;6.95;;;5.53;;
3099;SDS011;1560;52.746;13.474;2023-05-10T04:21:04;9.23;;;5.72;;
3099;SDS011;1560;52.746;13.474;2023-05-10T04:23:35;7.70;;;5.53;;
3099;SDS011;1560;52.746;13.474;2023-05-10T04:26:20;9.40;;;5.80;;
3099;SDS011;1560;52.746;13.474;2023-05-10T04:28:51;6.72;;;5.70;;
3099;SDS011;1560;52.746;13.474;2023-05-10T04:31:21;6.37;;;5.45;;
3099;SDS011;1560;52.746;13.474;2023-05-10T04:33:59;8.08;;;5.60;;
3099;SDS011;1560;52.746;13.474;2023-05-10T04:36:29;6.90;;;4.53;;
3099;SDS011;1560;52.746;13.474;2023-05-10T04:39:04;8.10;;;5.37;;
3099;SDS011;1560;52.746;13.474;2023-05-10T04:41:33;9.38;;;5.60;;
3099;SDS011;1560;52.746;13.474;2023-05-10T04:44:03;9.40;;;5.65;;
3099;SDS011;1560;52.746;13.474;2023-05-10T04:49:11;11.12;;;5.70;;
3099;SDS011;1560;52.746;13.474;2023-05-10T04:51:41;9.15;;;6.12;;
3099;SDS011;1560;52.746;13.474;2023-05-10T04:54:10;10.25;;;5.67;;
3099;SDS011;1560;52.746;13.474;2023-05-10T04:59:18;7.65;;;6.17;;
3099;SDS011;1560;52.746;13.474;2023-05-10T05:01:48;9.68;;;5.25;;
3099;SDS011;1560;52.746;13.474;2023-05-10T05:04:18;7.72;;;5.33;;
3099;SDS011;1560;52.746;13.474;2023-05-10T05:06:49;7.08;;;5.35;;
3099;SDS011;1560;52.746;13.474;2023-05-10T05:09:18;7.40;;;5.20;;
3099;SDS011;1560;52.746;13.474;2023-05-10T05:11:58;6.75;;;5.15;;
3099;SDS011;1560;52.746;13.474;2023-05-10T05:14:28;7.17;;;5.50;;
3099;SDS011;1560;52.746;13.474;2023-05-10T05:16:57;10.05;;;5.37;;
3099;SDS011;1560;52.746;13.474;2023-05-10T05:22:06;9.08;;;5.05;;
3099;SDS011;1560;52.746;13.474;2023-05-10T05:24:37;5.55;;;4.60;;
3099;SDS011;1560;52.746;13.474;2023-05-10T05:27:06;7.08;;;5.03;;
3099;SDS011;1560;52.746;13.474;2023-05-10T05:29:36;8.80;;;5.60;;
3099;SDS011;1560;52.746;13.474;2023-05-10T05:32:05;8.80;;;5.70;;
3099;SDS011;1560;52.746;13.474;2023-05-10T05:37:13;6.15;;;4.90;;
3099;SDS011;1560;52.746;13.474;2023-05-10T05:42:21;8.40;;;5.50;;
3099;SDS011;1560;52.746;13.474;2023-05-10T05:44:50;7.35;;;4.87;;
3099;SDS011;1560;52.746;13.474;2023-05-10T05:47:19;5.30;;;4.37;;
3099;SDS011;1560;52.746;13.474;2023-05-10T05:49:48;6.70;;;4.87;;
3099;SDS011;1560;52.746;13.474;2023-05-10T05:52:17;5.93;;;4.37;;
3099;SDS011;1560;52.746;13.474;2023-05-10T05:57:25;9.83;;;5.00;;
3099;SDS011;1560;52.746;13.474;2023-05-10T05:59:54;11.20;;;4.90;;
3099;SDS011;1560;52.746;13.474;2023-05-10T06:04:59;9.40;;;4.53;;
3099;SDS011;1560;52.746;13.474;2023-05-10T06:10:07;5.70;;;4.60;;
3099;SDS011;1560;52.746;13.474;2023-05-10T06:12:36;5.80;;;4.60;;
3099;SDS011;1560;52.746;13.474;2023-05-10T06:15:06;6.10;;;4.20;;
3099;SDS011;1560;52.746;13.474;2023-05-10T06:20:17;5.90;;;4.47;;
3099;SDS011;1560;52.746;13.474;2023-05-10T06:22:46;11.20;;;5.80;;
3099;SDS011;1560;52.746;13.474;2023-05-10T06:25:15;9.87;;;4.40;;
3099;SDS011;1560;52.746;13.474;2023-05-10T06:27:45;7.70;;;4.47;;
3099;SDS011;1560;52.746;13.474;2023-05-10T06:30:15;7.63;;;4.37;;
3099;SDS011;1560;52.746;13.474;2023-05-10T06:32:44;5.47;;;3.80;;
3099;SDS011;1560;52.746;13.474;2023-05-10T06:37:51;4.73;;;3.37;;
3099;SDS011;1560;52.746;13.474;2023-05-10T06:40:22;6.10;;;3.97;;
3099;SDS011;1560;52.746;13.474;2023-05-10T06:45:31;5.70;;;4.00;;
3099;SDS011;1560;52.746;13.474;2023-05-10T06:48:00;5.40;;;3.83;;
3099;SDS011;1560;52.746;13.474;2023-05-10T06:50:30;5.43;;;3.60;;
3099;SDS011;1560;52.746;13.474;2023-05-10T06:52:59;5.97;;;3.77;;
3099;SDS011;1560;52.746;13.474;2023-05-10T06:55:29;3.33;;;3.00;;
3099;SDS011;1560;52.746;13.474;2023-05-10T06:57:58;5.53;;;3.80;;
3099;SDS011;1560;52.746;13.474;2023-05-10T07:00:28;5.40;;;4.30;;
3099;SDS011;1560;52.746;13.474;2023-05-10T07:02:57;6.87;;;3.90;;
3099;SDS011;1560;52.746;13.474;2023-05-10T07:05:27;8.07;;;4.40;;
3099;SDS011;1560;52.746;13.474;2023-05-10T07:07:56;6.03;;;4.07;;
3099;SDS011;1560;52.746;13.474;2023-05-10T07:10:37;7.33;;;4.37;;
3099;SDS011;1560;52.746;13.474;2023-05-10T07:13:06;6.80;;;3.80;;
3099;SDS011;1560;52.746;13.474;2023-05-10T07:15:36;6.07;;;3.53;;
3099;SDS011;1560;52.746;13.474;2023-05-10T07:20:44;5.50;;;4.00;;
3099;SDS011;1560;52.746;13.474;2023-05-10T07:23:14;5.47;;;4.60;;
3099;SDS011;1560;52.746;13.474;2023-05-10T07:25:45;6.90;;;4.07;;
3099;SDS011;1560;52.746;13.474;2023-05-10T07:28:15;4.67;;;3.77;;
3099;SDS011;1560;52.746;13.474;2023-05-10T07:30:44;6.57;;;3.30;;
3099;SDS011;1560;52.746;13.474;2023-05-10T07:33:14;6.40;;;4.43;;
3099;SDS011;1560;52.746;13.474;2023-05-10T07:35:43;5.13;;;3.77;;
3099;SDS011;1560;52.746;13.474;2023-05-10T07:38:13;5.83;;;3.93;;
3099;SDS011;1560;52.746;13.474;2023-05-10T07:40:42;6.23;;;3.93;;
3099;SDS011;1560;52.746;13.474;2023-05-10T07:43:11;7.30;;;3.93;;
3099;SDS011;1560;52.746;13.474;2023-05-10T07:45:40;7.80;;;4.10;;
3099;SDS011;1560;52.746;13.474;2023-05-10T07:48:09;4.00;;;3.60;;
3099;SDS011;1560;52.746;13.474;2023-05-10T07:50:48;5.03;;;4.00;;
3099;SDS011;1560;52.746;13.474;2023-05-10T07:53:17;3.27;;;2.97;;
3099;SDS011;1560;52.746;13.474;2023-05-10T07:55:50;6.73;;;4.03;;
3099;SDS011;1560;52.746;13.474;2023-05-10T07:58:31;4.57;;;3.97;;
3099;SDS011;1560;52.746;13.474;2023-05-10T08:01:00;5.10;;;3.70;;
3099;SDS011;1560;52.746;13.474;2023-05-10T08:03:29;4.83;;;3.70;;
3099;SDS011;1560;52.746;13.474;2023-05-10T08:05:59;5.27;;;4.30;;
3099;SDS011;1560;52.746;13.474;2023-05-10T08:08:28;3.90;;;3.20;;
3099;SDS011;1560;52.746;13.474;2023-05-10T08:13:35;4.63;;;4.10;;
3099;SDS011;1560;52.746;13.474;2023-05-10T08:16:04;5.27;;;3.67;;
3099;SDS011;1560;52.746;13.474;2023-05-10T08:18:33;4.53;;;3.80;;
3099;SDS011;1560;52.746;13.474;2023-05-10T08:21:18;5.13;;;3.20;;
3099;SDS011;1560;52.746;13.474;2023-05-10T08:23:47;7.33;;;3.70;;
3099;SDS011;1560;52.746;13.474;2023-05-10T08:26:16;4.87;;;3.70;;
3099;SDS011;1560;52.746;13.474;2023-05-10T08:28:57;5.17;;;3.90;;
3099;SDS011;1560;52.746;13.474;2023-05-10T08:31:26;6.27;;;3.07;;
3099;SDS011;1560;52.746;13.474;2023-05-10T08:33:55;4.17;;;3.20;;
3099;SDS011;1560;52.746;13.474;2023-05-10T08:36:35;3.87;;;3.37;;
3099;SDS011;1560;52.746;13.474;2023-05-10T08:39:05;5.10;;;3.70;;
3099;SDS011;1560;52.746;13.474;2023-05-10T08:41:34;5.40;;;3.70;;
3099;SDS011;1560;52.746;13.474;2023-05-10T08:44:05;5.33;;;3.50;;
3099;SDS011;1560;52.746;13.474;2023-05-10T08:46:37;3.93;;;3.50;;
3099;SDS011;1560;52.746;13.474;2023-05-10T08:49:24;11.10;;;4.50;;
3099;SDS011;1560;52.746;13.474;2023-05-10T08:52:02;11.70;;;4.13;;
3099;SDS011;1560;52.746;13.474;2023-05-10T08:54:37;7.90;;;4.37;;
3099;SDS011;1560;52.746;13.474;2023-05-10T08:57:07;5.00;;;3.40;;
3099;SDS011;1560;52.746;13.474;2023-05-10T08:59:50;4.07;;;3.13;;
3099;SDS011;1560;52.746;13.474;2023-05-10T09:02:22;3.70;;;3.10;;
3099;SDS011;1560;52.746;13.474;2023-05-10T09:04:52;5.37;;;4.33;;
3099;SDS011;1560;52.746;13.474;2023-05-10T09:07:25;3.93;;;3.33;;
3099;SDS011;1560;52.746;13.474;2023-05-10T09:12:38;7.00;;;3.77;;
3099;SDS011;1560;52.746;13.474;2023-05-10T09:15:17;5.17;;;3.83;;
3099;SDS011;1560;52.746;13.474;2023-05-10T09:17:51;5.30;;;4.07;;
3099;SDS011;1560;52.746;13.474;2023-05-10T09:20:24;11.77;;;5.13;;
3099;SDS011;1560;52.746;13.474;2023-05-10T09:22:53;7.20;;;3.13;;
3099;SDS011;1560;52.746;13.474;2023-05-10T09:25:22;4.47;;;3.93;;
3099;SDS011;1560;52.746;13.474;2023-05-10T09:30:35;5.00;;;3.73;;
3099;SDS011;1560;52.746;13.474;2023-05-10T09:33:09;3.87;;;3.47;;
3099;SDS011;1560;52.746;13.474;2023-05-10T09:38:45;6.20;;;4.20;;
3099;SDS011;1560;52.746;13.474;2023-05-10T09:41:22;3.73;;;3.10;;
3099;SDS011;1560;52.746;13.474;2023-05-10T09:46:35;5.90;;;3.30;;
3099;SDS011;1560;52.746;13.474;2023-05-10T09:49:04;5.80;;;3.90;;
3099;SDS011;1560;52.746;13.474;2023-05-10T09:54:19;5.00;;;4.03;;
3099;SDS011;1560;52.746;13.474;2023-05-10T09:59:32;3.87;;;3.20;;
3099;SDS011;1560;52.746;13.474;2023-05-10T10:02:02;3.53;;;3.20;;
3099;SDS011;1560;52.746;13.474;2023-05-10T10:04:37;7.83;;;3.83;;
3099;SDS011;1560;52.746;13.474;2023-05-10T10:07:22;5.63;;;3.90;;
3099;SDS011;1560;52.746;13.474;2023-05-10T10:12:39;4.97;;;3.90;;
3099;SDS011;1560;52.746;13.474;2023-05-10T10:15:14;3.57;;;3.27;;
3099;SDS011;1560;52.746;13.474;2023-05-10T10:20:34;4.57;;;3.77;;
3099;SDS011;1560;52.746;13.474;2023-05-10T10:23:08;4.10;;;3.70;;
3099;SDS011;1560;52.746;13.474;2023-05-10T10:25:38;5.60;;;3.63;;
3099;SDS011;1560;52.746;13.474;2023-05-10T10:28:10;11.33;;;4.17;;
3099;SDS011;1560;52.746;13.474;2023-05-10T10:44:37;4.37;;;3.50;;
3099;SDS011;1560;52.746;13.474;2023-05-10T10:47:22;5.37;;;3.83;;
3099;SDS011;1560;52.746;13.474;2023-05-10T10:52:42;7.17;;;3.90;;
3099;SDS011;1560;52.746;13.474;2023-05-10T10:55:21;4.77;;;3.50;;
3099;SDS011;1560;52.746;13.474;2023-05-10T11:01:21;4.20;;;3.80;;
3099;SDS011;1560;52.746;13.474;2023-05-10T11:04:19;4.23;;;3.40;;
3099;SDS011;1560;52.746;13.474;2023-05-10T11:06:48;5.40;;;3.70;;
3099;SDS011;1560;52.746;13.474;2023-05-10T11:09:18;4.60;;;3.50;;
3099;SDS011;1560;52.746;13.474;2023-05-10T11:11:51;4.50;;;3.57;;
3099;SDS011;1560;52.746;13.474;2023-05-10T11:17:39;5.73;;;3.80;;
3099;SDS011;1560;52.746;13.474;2023-05-10T11:33:50;4.83;;;4.33;;
3099;SDS011;1560;52.746;13.474;2023-05-10T11:36:24;4.83;;;4.33;;
3099;SDS011;1560;52.746;13.474;2023-05-10T11:38:53;4.00;;;3.60;;
3099;SDS011;1560;52.746;13.474;2023-05-10T11:41:41;4.60;;;3.10;;
3099;SDS011;1560;52.746;13.474;2023-05-10T11:44:12;6.00;;;3.80;;
3099;SDS011;1560;52.746;13.474;2023-05-10T11:46:41;8.67;;;3.50;;
3099;SDS011;1560;52.746;13.474;2023-05-10T11:49:26;4.27;;;3.13;;
3099;SDS011;1560;52.746;13.474;2023-05-10T11:52:05;7.53;;;3.83;;
3099;SDS011;1560;52.746;13.474;2023-05-10T11:54:37;7.53;;;3.47;;
3099;SDS011;1560;52.746;13.474;2023-05-10T11:57:08;4.93;;;3.83;;
3099;SDS011;1560;52.746;13.474;2023-05-10T11:59:46;6.00;;;4.13;;
3099;SDS011;1560;52.746;13.474;2023-05-10T12:02:17;5.43;;;3.47;;
3099;SDS011;1560;52.746;13.474;2023-05-10T12:07:29;3.97;;;3.50;;
3099;SDS011;1560;52.746;13.474;2023-05-10T12:10:08;4.87;;;3.60;;
3099;SDS011;1560;52.746;13.474;2023-05-10T12:12:41;5.20;;;3.77;;
3099;SDS011;1560;52.746;13.474;2023-05-10T12:15:17;8.13;;;5.13;;
3099;SDS011;1560;52.746;13.474;2023-05-10T12:17:48;4.00;;;3.20;;
3099;SDS011;1560;52.746;13.474;2023-05-10T12:20:19;4.40;;;3.70;;
3099;SDS011;1560;52.746;13.474;2023-05-10T12:25:30;4.57;;;3.67;;
3099;SDS011;1560;52.746;13.474;2023-05-10T12:28:03;6.57;;;3.47;;
3099;SDS011;1560;52.746;13.474;2023-05-10T12:30:43;6.67;;;3.47;;
3099;SDS011;1560;52.746;13.474;2023-05-10T12:33:13;4.23;;;3.20;;
3099;SDS011;1560;52.746;13.474;2023-05-10T12:35:46;23.40;;;4.80;;
3099;SDS011;1560;52.746;13.474;2023-05-10T12:38:30;6.37;;;3.57;;
3099;SDS011;1560;52.746;13.474;2023-05-10T12:41:01;4.97;;;3.60;;
3099;SDS011;1560;52.746;13.474;2023-05-10T12:43:41;4.80;;;3.43;;
3099;SDS011;1560;52.746;13.474;2023-05-10T12:48:51;9.73;;;4.07;;
3099;SDS011;1560;52.746;13.474;2023-05-10T12:51:22;5.47;;;3.77;;
3099;SDS011;1560;52.746;13.474;2023-05-10T12:53:51;4.50;;;3.50;;
3099;SDS011;1560;52.746;13.474;2023-05-10T12:56:22;10.60;;;3.77;;
3099;SDS011;1560;52.746;13.474;2023-05-10T13:01:29;5.87;;;4.00;;
3099;SDS011;1560;52.746;13.474;2023-05-10T13:03:58;4.50;;;3.40;;
3099;SDS011;1560;52.746;13.474;2023-05-10T13:06:27;6.53;;;4.10;;
3099;SDS011;1560;52.746;13.474;2023-05-10T13:08:57;4.03;;;3.37;;
3099;SDS011;1560;52.746;13.474;2023-05-10T13:11:26;6.73;;;3.30;;
3099;SDS011;1560;52.746;13.474;2023-05-10T13:13:55;6.43;;;3.93;;
3099;SDS011;1560;52.746;13.474;2023-05-10T13:16:36;4.90;;;3.03;;
3099;SDS011;1560;52.746;13.474;2023-05-10T13:21:49;9.03;;;3.47;;
3099;SDS011;1560;52.746;13.474;2023-05-10T13:24:18;4.63;;;3.30;;
3099;SDS011;1560;52.746;13.474;2023-05-10T13:26:47;13.63;;;4.93;;
3099;SDS011;1560;52.746;13.474;2023-05-10T13:29:19;9.13;;;3.80;;
3099;SDS011;1560;52.746;13.474;2023-05-10T13:34:33;7.03;;;3.90;;
3099;SDS011;1560;52.746;13.474;2023-05-10T13:37:10;3.87;;;3.27;;
3099;SDS011;1560;52.746;13.474;2023-05-10T13:42:23;8.27;;;3.87;;
3099;SDS011;1560;52.746;13.474;2023-05-10T13:44:53;5.90;;;3.60;;
3099;SDS011;1560;52.746;13.474;2023-05-10T13:58:04;5.70;;;3.20;;
3099;SDS011;1560;52.746;13.474;2023-05-10T14:00:33;5.13;;;3.63;;
3099;SDS011;1560;52.746;13.474;2023-05-10T14:05:50;4.80;;;2.73;;
3099;SDS011;1560;52.746;13.474;2023-05-10T14:08:19;4.63;;;3.40;;
3099;SDS011;1560;52.746;13.474;2023-05-10T14:10:48;3.87;;;2.90;;
3099;SDS011;1560;52.746;13.474;2023-05-10T14:13:18;3.20;;;2.90;;
3099;SDS011;1560;52.746;13.474;2023-05-10T14:15:47;4.37;;;3.07;;
3099;SDS011;1560;52.746;13.474;2023-05-10T14:18:27;3.47;;;2.90;;
3099;SDS011;1560;52.746;13.474;2023-05-10T14:20:57;4.70;;;2.80;;
3099;SDS011;1560;52.746;13.474;2023-05-10T14:23:26;3.23;;;2.80;;
3099;SDS011;1560;52.746;13.474;2023-05-10T14:25:56;3.30;;;2.77;;
3099;SDS011;1560;52.746;13.474;2023-05-10T14:28:35;4.87;;;3.23;;
3099;SDS011;1560;52.746;13.474;2023-05-10T14:31:04;4.60;;;3.30;;
3099;SDS011;1560;52.746;13.474;2023-05-10T14:33:33;3.90;;;3.03;;
3099;SDS011;1560;52.746;13.474;2023-05-10T14:36:03;3.93;;;3.17;;
3099;SDS011;1560;52.746;13.474;2023-05-10T14:38:32;4.30;;;3.37;;
3099;SDS011;1560;52.746;13.474;2023-05-10T14:43:39;8.63;;;3.10;;
3099;SDS011;1560;52.746;13.474;2023-05-10T14:46:09;3.20;;;2.23;;
3099;SDS011;1560;52.746;13.474;2023-05-10T14:48:38;4.50;;;2.57;;
3099;SDS011;1560;52.746;13.474;2023-05-10T14:51:17;5.37;;;3.30;;
3099;SDS011;1560;52.746;13.474;2023-05-10T14:53:48;3.23;;;2.47;;
3099;SDS011;1560;52.746;13.474;2023-05-10T14:56:17;4.90;;;3.10;;
3099;SDS011;1560;52.746;13.474;2023-05-10T14:58:49;6.03;;;2.80;;
3099;SDS011;1560;52.746;13.474;2023-05-10T15:01:18;3.40;;;2.63;;
3099;SDS011;1560;52.746;13.474;2023-05-10T15:03:47;4.27;;;2.90;;
3099;SDS011;1560;52.746;13.474;2023-05-10T15:06:16;3.90;;;3.07;;
3099;SDS011;1560;52.746;13.474;2023-05-10T15:11:27;5.33;;;2.30;;
3099;SDS011;1560;52.746;13.474;2023-05-10T15:13:56;4.73;;;2.80;;
3099;SDS011;1560;52.746;13.474;2023-05-10T15:16:25;3.50;;;2.73;;
3099;SDS011;1560;52.746;13.474;2023-05-10T15:18:54;5.50;;;2.67;;
3099;SDS011;1560;52.746;13.474;2023-05-10T15:21:23;10.00;;;2.80;;
3099;SDS011;1560;52.746;13.474;2023-05-10T15:26:34;4.53;;;2.60;;
3099;SDS011;1560;52.746;13.474;2023-05-10T15:29:03;6.13;;;3.53;;
3099;SDS011;1560;52.746;13.474;2023-05-10T15:31:32;8.07;;;2.97;;
3099;SDS011;1560;52.746;13.474;2023-05-10T15:34:02;8.13;;;3.70;;
3099;SDS011;1560;52.746;13.474;2023-05-10T15:36:33;3.63;;;2.80;;
3099;SDS011;1560;52.746;13.474;2023-05-10T15:41:43;3.63;;;2.40;;
3099;SDS011;1560;52.746;13.474;2023-05-10T15:44:13;3.43;;;3.13;;
3099;SDS011;1560;52.746;13.474;2023-05-10T15:46:43;5.33;;;2.90;;
3099;SDS011;1560;52.746;13.474;2023-05-10T15:51:49;3.20;;;2.90;;
3099;SDS011;1560;52.746;13.474;2023-05-10T15:54:18;4.20;;;2.87;;
3099;SDS011;1560;52.746;13.474;2023-05-10T15:56:47;4.33;;;2.70;;
3099;SDS011;1560;52.746;13.474;2023-05-10T15:59:25;4.90;;;2.70;;
3099;SDS011;1560;52.746;13.474;2023-05-10T16:01:56;3.20;;;2.90;;
3099;SDS011;1560;52.746;13.474;2023-05-10T16:04:25;6.33;;;2.77;;
3099;SDS011;1560;52.746;13.474;2023-05-10T16:09:35;5.80;;;2.80;;
3099;SDS011;1560;52.746;13.474;2023-05-10T16:14:42;4.83;;;2.77;;
3099;SDS011;1560;52.746;13.474;2023-05-10T16:17:11;5.60;;;3.27;;
3099;SDS011;1560;52.746;13.474;2023-05-10T16:19:40;4.97;;;3.20;;
3099;SDS011;1560;52.746;13.474;2023-05-10T16:24:51;5.13;;;2.90;;
3099;SDS011;1560;52.746;13.474;2023-05-10T16:27:20;3.50;;;2.50;;
3099;SDS011;1560;52.746;13.474;2023-05-10T16:32:27;3.53;;;2.30;;
3099;SDS011;1560;52.746;13.474;2023-05-10T16:34:56;2.90;;;2.60;;
3099;SDS011;1560;52.746;13.474;2023-05-10T16:37:42;3.63;;;2.77;;
3099;SDS011;1560;52.746;13.474;2023-05-10T16:42:48;3.17;;;2.60;;
3099;SDS011;1560;52.746;13.474;2023-05-10T16:45:17;4.43;;;3.30;;
3099;SDS011;1560;52.746;13.474;2023-05-10T16:47:48;2.67;;;2.40;;
3099;SDS011;1560;52.746;13.474;2023-05-10T16:53:25;5.97;;;2.70;;
3099;SDS011;1560;52.746;13.474;2023-05-10T16:55:54;3.07;;;2.60;;
3099;SDS011;1560;52.746;13.474;2023-05-10T17:01:07;3.70;;;2.60;;
3099;SDS011;1560;52.746;13.474;2023-05-10T17:03:36;4.63;;;2.90;;
3099;SDS011;1560;52.746;13.474;2023-05-10T17:06:05;3.93;;;2.80;;
3099;SDS011;1560;52.746;13.474;2023-05-10T17:08:35;13.50;;;10.37;;
3099;SDS011;1560;52.746;13.474;2023-05-10T17:11:14;4.03;;;3.63;;
3099;SDS011;1560;52.746;13.474;2023-05-10T17:13:45;3.63;;;3.20;;
3099;SDS011;1560;52.746;13.474;2023-05-10T17:18:51;5.33;;;4.20;;
3099;SDS011;1560;52.746;13.474;2023-05-10T17:21:20;5.45;;;4.95;;
3099;SDS011;1560;52.746;13.474;2023-05-10T17:23:50;5.00;;;4.50;;
3099;SDS011;1560;52.746;13.474;2023-05-10T18:38:20;8.70;;;5.97;;
3099;SDS011;1560;52.746;13.474;2023-05-10T18:44:11;8.83;;;6.57;;
3099;SDS011;1560;52.746;13.474;2023-05-10T19:30:49;8.77;;;6.83;;
3099;SDS011;1560;52.746;13.474;2023-05-10T19:43:04;10.57;;;5.90;;
3099;SDS011;1560;52.746;13.474;2023-05-10T19:45:45;9.90;;;6.40;;
3099;SDS011;1560;52.746;13.474;2023-05-10T19:58:20;6.47;;;5.87;;
3099;SDS011;1560;52.746;13.474;2023-05-10T20:00:50;6.50;;;5.40;;
3099;SDS011;1560;52.746;13.474;2023-05-10T20:03:19;7.67;;;6.10;;
3099;SDS011;1560;52.746;13.474;2023-05-10T20:05:48;7.80;;;6.43;;
3099;SDS011;1560;52.746;13.474;2023-05-10T20:08:17;6.30;;;5.60;;
3099;SDS011;1560;52.746;13.474;2023-05-10T20:10:46;6.30;;;5.70;;
3099;SDS011;1560;52.746;13.474;2023-05-10T20:13:16;7.17;;;6.33;;
3099;SDS011;1560;52.746;13.474;2023-05-10T20:15:45;7.00;;;6.00;;
3099;SDS011;1560;52.746;13.474;2023-05-10T20:18:14;6.57;;;5.90;;
3099;SDS011;1560;52.746;13.474;2023-05-10T20:20:43;7.87;;;6.27;;
3099;SDS011;1560;52.746;13.474;2023-05-10T20:23:12;7.00;;;5.60;;
3099;SDS011;1560;52.746;13.474;2023-05-10T20:25:41;8.67;;;6.77;;
3099;SDS011;1560;52.746;13.474;2023-05-10T20:28:10;6.83;;;6.20;;
3099;SDS011;1560;52.746;13.474;2023-05-10T20:30:51;7.63;;;6.70;;
3099;SDS011;1560;52.746;13.474;2023-05-10T20:33:21;10.50;;;7.03;;
3099;SDS011;1560;52.746;13.474;2023-05-10T20:35:51;8.40;;;6.73;;
3099;SDS011;1560;52.746;13.474;2023-05-10T20:38:20;7.13;;;6.43;;
3099;SDS011;1560;52.746;13.474;2023-05-10T20:40:49;7.10;;;6.40;;
3099;SDS011;1560;52.746;13.474;2023-05-10T20:43:18;8.90;;;7.00;;
3099;SDS011;1560;52.746;13.474;2023-05-10T20:45:47;8.83;;;7.07;;
3099;SDS011;1560;52.746;13.474;2023-05-10T20:48:16;9.33;;;6.13;;
3099;SDS011;1560;52.746;13.474;2023-05-10T20:50:45;9.30;;;6.17;;
3099;SDS011;1560;52.746;13.474;2023-05-10T20:53:14;8.73;;;6.80;;
3099;SDS011;1560;52.746;13.474;2023-05-10T20:55:44;9.70;;;6.90;;
3099;SDS011;1560;52.746;13.474;2023-05-10T21:00:51;9.63;;;6.77;;
3099;SDS011;1560;52.746;13.474;2023-05-10T21:03:20;8.30;;;6.23;;
3099;SDS011;1560;52.746;13.474;2023-05-10T21:05:49;7.43;;;6.17;;
3099;SDS011;1560;52.746;13.474;2023-05-10T21:08:18;11.07;;;6.83;;
3099;SDS011;1560;52.746;13.474;2023-05-10T21:10:47;9.37;;;6.50;;
3099;SDS011;1560;52.746;13.474;2023-05-10T21:15:54;10.90;;;7.43;;
3099;SDS011;1560;52.746;13.474;2023-05-10T21:21:01;7.20;;;6.50;;
3099;SDS011;1560;52.746;13.474;2023-05-10T21:23:30;8.93;;;7.57;;